Time;durP1;ratioP1;P1;durP2;ratioP2;P2;SDS_P1;SDS_P2;PMS_P1;PMS_P2;Temp;Humidity;BMP_temperature;BMP_pressure;BME280_temperature;BME280_humidity;BME280_pressure;Samples;Min_cycle;Max_cycle;Signal;HPM_P1;HPM_P2
2023/12/14 00:02:06;;;;;;;1.40;1.30;;;5.00;99.90;;;;;;5034571;28;20397;-63
2023/12/14 00:04:31;;;;;;;1.83;1.40;;;5.00;99.90;;;;;;5034161;28;20045;-63
2023/12/14 00:06:57;;;;;;;1.33;1.23;;;5.00;99.90;;;;;;5032518;28;20084;-63
2023/12/14 00:09:22;;;;;;;1.50;1.40;;;5.20;99.90;;;;;;5033692;28;20472;-63
2023/12/14 00:11:48;;;;;;;1.50;1.40;;;5.30;99.90;;;;;;5034447;28;20124;-63
2023/12/14 00:14:14;;;;;;;1.30;1.20;;;5.00;99.90;;;;;;5034019;28;20083;-64
2023/12/14 00:16:39;;;;;;;1.40;1.30;;;4.90;99.90;;;;;;5034278;28;20077;-63
2023/12/14 00:19:05;;;;;;;1.60;1.35;;;4.90;99.90;;;;;;5034253;28;20045;-63
2023/12/14 00:21:30;;;;;;;1.45;1.35;;;4.90;99.90;;;;;;5034113;28;20386;-63
2023/12/14 00:23:56;;;;;;;1.38;1.27;;;4.90;99.90;;;;;;5034166;28;20444;-63
2023/12/14 00:26:22;;;;;;;1.50;1.40;;;4.90;99.90;;;;;;5033928;28;20474;-64
2023/12/14 00:28:47;;;;;;;1.50;1.40;;;5.20;99.90;;;;;;5034101;28;20461;-63
2023/12/14 00:31:13;;;;;;;1.55;1.45;;;4.90;99.90;;;;;;5033984;28;20045;-63
2023/12/14 00:33:39;;;;;;;1.30;1.20;;;4.90;99.90;;;;;;5033859;28;20452;-63
2023/12/14 00:36:04;;;;;;;1.35;1.25;;;4.90;99.90;;;;;;5033386;28;20556;-63
2023/12/14 00:38:30;;;;;;;1.30;1.20;;;4.80;99.90;;;;;;5032265;28;20434;-63
2023/12/14 00:40:56;;;;;;;1.63;1.52;;;5.00;99.90;;;;;;5033765;28;20029;-63
2023/12/14 00:43:22;;;;;;;1.13;1.13;;;4.80;99.90;;;;;;5033649;28;20501;-63
2023/12/14 00:45:47;;;;;;;1.27;1.17;;;4.80;99.90;;;;;;5033471;28;20041;-63
2023/12/14 00:48:13;;;;;;;1.55;1.45;;;4.80;99.90;;;;;;5033613;28;20063;-63
2023/12/14 00:50:39;;;;;;;1.40;1.30;;;4.80;99.90;;;;;;5033264;28;20038;-67
2023/12/14 00:53:04;;;;;;;1.45;1.35;;;4.80;99.90;;;;;;5033189;28;20041;-63
2023/12/14 00:55:30;;;;;;;1.35;1.25;;;4.80;99.90;;;;;;5033440;28;20037;-63
2023/12/14 00:57:55;;;;;;;1.17;1.08;;;4.80;99.90;;;;;;5033470;28;20394;-63
2023/12/14 01:00:21;;;;;;;1.27;1.17;;;4.90;99.90;;;;;;5032107;28;20048;-63
2023/12/14 01:02:47;;;;;;;1.42;1.33;;;4.80;99.90;;;;;;5033334;28;20041;-64
2023/12/14 01:05:12;;;;;;;1.55;1.45;;;4.80;99.90;;;;;;5032016;28;20120;-62
2023/12/14 01:07:38;;;;;;;1.20;1.10;;;4.80;99.90;;;;;;5033168;28;20107;-63
2023/12/14 01:10:04;;;;;;;1.83;1.35;;;4.70;99.90;;;;;;5031608;28;20043;-63
2023/12/14 01:12:30;;;;;;;1.30;1.20;;;4.70;99.90;;;;;;5031661;28;20045;-63
2023/12/14 01:14:55;;;;;;;1.75;1.48;;;4.80;99.90;;;;;;5033178;28;20053;-63
2023/12/14 01:17:21;;;;;;;1.42;1.33;;;4.70;99.90;;;;;;5033065;28;20037;-63
2023/12/14 01:19:47;;;;;;;1.23;1.13;;;4.70;99.90;;;;;;5031281;28;20087;-63
2023/12/14 01:22:12;;;;;;;2.65;1.58;;;4.70;99.90;;;;;;5015028;28;20529;-62
2023/12/14 01:24:38;;;;;;;1.40;1.30;;;5.10;99.90;;;;;;5032966;28;20050;-63
2023/12/14 01:27:04;;;;;;;1.65;1.30;;;4.70;99.90;;;;;;5032505;28;20052;-63
2023/12/14 01:29:29;;;;;;;1.40;1.30;;;4.70;99.90;;;;;;5032597;28;20038;-63
2023/12/14 01:31:55;;;;;;;1.45;1.35;;;4.70;99.90;;;;;;5031291;28;20041;-64
2023/12/14 01:34:21;;;;;;;1.10;1.10;;;4.70;99.90;;;;;;5032757;28;20535;-63
2023/12/14 01:36:46;;;;;;;1.40;1.30;;;4.70;99.90;;;;;;5032261;28;20474;-63
2023/12/14 01:39:12;;;;;;;1.48;1.38;;;4.90;99.90;;;;;;5032708;28;20116;-63
2023/12/14 01:41:37;;;;;;;1.40;1.30;;;4.70;99.90;;;;;;5032672;28;20107;-63
2023/12/14 01:44:03;;;;;;;1.70;1.40;;;4.80;99.90;;;;;;5032557;28;20424;-63
2023/12/14 01:46:29;;;;;;;1.67;1.58;;;4.70;99.90;;;;;;5032471;28;20050;-63
2023/12/14 01:48:55;;;;;;;1.50;1.40;;;4.70;99.90;;;;;;5032563;28;20396;-63
2023/12/14 01:51:20;;;;;;;2.25;1.58;;;4.70;99.90;;;;;;5032522;28;20512;-63
2023/12/14 01:53:46;;;;;;;1.40;1.30;;;4.60;99.90;;;;;;5032127;28;20049;-64
2023/12/14 01:56:12;;;;;;;1.50;1.40;;;4.60;99.90;;;;;;5032423;28;20041;-64
2023/12/14 01:58:37;;;;;;;1.50;1.40;;;4.60;99.90;;;;;;5032471;28;20037;-64
2023/12/14 02:01:35;;;;;;;1.42;1.33;;;4.60;99.90;;;;;;5032113;28;20045;-64
2023/12/14 02:04:01;;;;;;;1.60;1.50;;;4.60;99.90;;;;;;5032370;28;20514;-64
2023/12/14 02:06:27;;;;;;;1.38;1.27;;;4.70;99.90;;;;;;5031953;28;20049;-64
2023/12/14 02:08:53;;;;;;;1.48;1.38;;;4.90;99.90;;;;;;5063065;22;20076;-62
2023/12/14 02:11:19;;;;;;;1.20;1.10;;;4.70;99.90;;;;;;5050950;28;20519;-60
2023/12/14 02:13:44;;;;;;;1.48;1.38;;;4.50;99.90;;;;;;5050991;28;20078;-60
2023/12/14 02:16:10;;;;;;;1.40;1.30;;;4.60;99.90;;;;;;5052396;28;20037;-65
2023/12/14 02:18:36;;;;;;;1.73;1.50;;;4.60;99.90;;;;;;5050615;28;20045;-66
2023/12/14 02:21:02;;;;;;;1.38;1.27;;;4.90;99.90;;;;;;5052065;28;20040;-66
2023/12/14 02:23:28;;;;;;;1.48;1.35;;;4.60;99.90;;;;;;5052028;28;20489;-66
2023/12/14 02:25:53;;;;;;;1.50;1.40;;;4.60;99.90;;;;;;5051982;28;20530;-66
2023/12/14 02:28:19;;;;;;;1.58;1.42;;;4.80;99.90;;;;;;5051838;28;20532;-66
2023/12/14 02:30:45;;;;;;;1.70;1.60;;;4.60;99.90;;;;;;5052389;28;20072;-66
2023/12/14 02:33:10;;;;;;;1.65;1.55;;;4.60;99.90;;;;;;5056121;28;20037;-66
2023/12/14 02:35:36;;;;;;;1.98;1.77;;;4.60;99.90;;;;;;5055792;28;20037;-66
2023/12/14 02:38:01;;;;;;;1.40;1.30;;;4.60;99.90;;;;;;5055987;28;20041;-66
2023/12/14 02:40:27;;;;;;;1.67;1.50;;;5.10;99.90;;;;;;5055994;28;20041;-66
2023/12/14 02:42:53;;;;;;;2.38;1.60;;;5.20;99.90;;;;;;5054425;28;20562;-66
2023/12/14 02:45:18;;;;;;;1.92;1.60;;;5.00;99.90;;;;;;5054312;28;20432;-66
2023/12/14 02:47:46;;;;;;;1.88;1.77;;;4.60;99.90;;;;;;5054267;28;20045;-66
2023/12/14 02:50:12;;;;;;;1.70;1.60;;;4.60;99.90;;;;;;5055647;28;20048;-66
2023/12/14 02:52:37;;;;;;;1.67;1.58;;;4.70;99.90;;;;;;5054418;28;20051;-66
2023/12/14 02:55:03;;;;;;;1.85;1.70;;;4.70;99.90;;;;;;5055467;28;20048;-66
2023/12/14 02:57:29;;;;;;;1.80;1.70;;;4.70;99.90;;;;;;5055777;28;20033;-66
2023/12/14 02:59:55;;;;;;;2.33;1.80;;;4.70;99.90;;;;;;5054323;28;20045;-66
2023/12/14 03:02:20;;;;;;;2.25;2.05;;;4.70;99.90;;;;;;5054045;28;20041;-66
2023/12/14 03:04:46;;;;;;;2.13;1.92;;;4.70;99.90;;;;;;5055547;28;20044;-66
2023/12/14 03:07:12;;;;;;;2.47;2.17;;;4.70;99.90;;;;;;5055224;28;20415;-66
2023/12/14 03:09:44;;;;;;;2.28;2.08;;;4.70;99.90;;;;;;5053932;28;20437;-66
2023/12/14 03:12:10;;;;;;;3.13;2.05;;;4.80;99.90;;;;;;5055434;28;20037;-66
2023/12/14 03:14:36;;;;;;;2.08;1.90;;;4.70;99.90;;;;;;5055403;28;20037;-66
2023/12/14 03:17:02;;;;;;;1.95;1.85;;;4.70;99.90;;;;;;5055024;28;20131;-66
2023/12/14 03:19:28;;;;;;;1.92;1.77;;;4.70;99.90;;;;;;5055292;28;20124;-66
2023/12/14 03:21:54;;;;;;;2.10;1.90;;;4.70;99.90;;;;;;5055598;28;20423;-60
2023/12/14 03:24:20;;;;;;;2.30;1.73;;;4.70;99.90;;;;;;5055330;28;20041;-60
2023/12/14 03:26:45;;;;;;;2.80;2.22;;;4.90;99.90;;;;;;5055136;28;20045;-60
2023/12/14 03:29:11;;;;;;;2.50;2.30;;;4.70;99.90;;;;;;5055352;28;20037;-60
2023/12/14 03:31:37;;;;;;;1.77;1.65;;;4.70;99.90;;;;;;5053877;28;20040;-66
2023/12/14 03:34:03;;;;;;;2.67;2.25;;;4.60;99.90;;;;;;5054685;28;20043;-65
2023/12/14 03:36:28;;;;;;;2.10;1.90;;;4.70;99.90;;;;;;5053452;28;20088;-66
2023/12/14 03:38:54;;;;;;;2.50;1.90;;;4.70;99.90;;;;;;5054865;28;20373;-66
2023/12/14 03:41:20;;;;;;;2.22;2.03;;;4.90;99.90;;;;;;5055181;28;20036;-72
2023/12/14 03:43:45;;;;;;;1.75;1.65;;;4.70;99.90;;;;;;5054744;28;20484;-71
2023/12/14 03:46:11;;;;;;;2.13;1.92;;;4.70;99.90;;;;;;5054414;28;20090;-71
2023/12/14 03:48:37;;;;;;;2.10;1.90;;;4.70;99.90;;;;;;5054450;28;20040;-72
2023/12/14 03:51:04;;;;;;;3.17;2.22;;;4.70;99.90;;;;;;5053448;28;20049;-70
2023/12/14 03:53:29;;;;;;;2.22;2.03;;;4.70;99.90;;;;;;5054741;28;20040;-72
2023/12/14 03:55:55;;;;;;;1.98;1.80;;;4.80;99.90;;;;;;5054317;28;20503;-72
2023/12/14 03:58:21;;;;;;;2.40;2.17;;;4.70;99.90;;;;;;5054553;28;20040;-71
2023/12/14 04:00:47;;;;;;;2.30;1.90;;;4.70;99.90;;;;;;5052924;28;20443;-71
2023/12/14 04:03:12;;;;;;;2.33;2.13;;;4.70;99.90;;;;;;5054593;28;20043;-71
2023/12/14 04:05:38;;;;;;;2.85;2.00;;;4.70;99.90;;;;;;5054221;28;20518;-71
2023/12/14 04:08:04;;;;;;;2.30;2.08;;;4.70;99.90;;;;;;5054067;28;20138;-71
2023/12/14 04:10:30;;;;;;;1.75;1.65;;;4.70;99.90;;;;;;5054071;28;20440;-71
2023/12/14 04:12:56;;;;;;;2.88;1.83;;;5.40;99.90;;;;;;5053033;28;20071;-72
2023/12/14 04:15:22;;;;;;;2.05;1.85;;;4.70;99.90;;;;;;5053933;28;20102;-71
2023/12/14 04:17:47;;;;;;;2.28;2.08;;;4.60;99.90;;;;;;5052695;28;20043;-71
2023/12/14 04:20:15;;;;;;;2.05;1.80;;;5.10;99.90;;;;;;5054199;28;20045;-71
2023/12/14 04:22:43;;;;;;;2.35;2.15;;;4.60;99.90;;;;;;5035966;28;20040;-72
2023/12/14 04:25:08;;;;;;;1.77;1.60;;;4.60;99.90;;;;;;5054063;28;20053;-71
2023/12/14 04:27:34;;;;;;;2.47;2.03;;;4.70;99.90;;;;;;5053965;28;20118;-73
2023/12/14 04:29:59;;;;;;;2.35;2.15;;;4.70;99.90;;;;;;5054036;28;20037;-71
2023/12/14 04:32:25;;;;;;;3.05;2.03;;;4.60;99.90;;;;;;5053857;28;20041;-72
2023/12/14 04:34:51;;;;;;;2.17;1.98;;;4.70;99.90;;;;;;5053858;28;20489;-71
2023/12/14 04:37:16;;;;;;;2.03;1.85;;;5.20;99.90;;;;;;5052232;28;20515;-71
2023/12/14 04:39:42;;;;;;;2.03;1.83;;;5.10;99.90;;;;;;5052178;28;20444;-71
2023/12/14 04:42:08;;;;;;;2.35;2.00;;;4.60;99.90;;;;;;5053840;28;20055;-70
2023/12/14 04:44:33;;;;;;;2.42;2.22;;;4.60;99.90;;;;;;5052029;28;20044;-71
2023/12/14 04:46:59;;;;;;;2.13;1.83;;;4.60;99.90;;;;;;5053579;28;20087;-71
2023/12/14 04:49:25;;;;;;;2.03;1.92;;;4.60;99.90;;;;;;5053331;28;20460;-72
2023/12/14 04:51:50;;;;;;;4.13;2.10;;;4.60;99.90;;;;;;5052100;28;20499;-60
2023/12/14 04:54:16;;;;;;;2.90;2.15;;;4.60;99.90;;;;;;5052791;28;20506;-60
2023/12/14 04:56:45;;;;;;;2.40;1.83;;;4.60;99.90;;;;;;5052539;28;20072;-60
2023/12/14 04:59:10;;;;;;;1.60;1.50;;;4.60;99.90;;;;;;5053557;28;20098;-60
2023/12/14 05:01:36;;;;;;;1.70;1.60;;;4.60;99.90;;;;;;5052241;28;20108;-63
2023/12/14 05:04:02;;;;;;;2.03;1.77;;;4.60;99.90;;;;;;5053286;28;20033;-63
2023/12/14 05:06:29;;;;;;;1.98;1.83;;;4.60;99.90;;;;;;5051862;28;20107;-63
2023/12/14 05:08:55;;;;;;;1.70;1.60;;;4.60;99.90;;;;;;5052874;28;20049;-63
2023/12/14 05:11:21;;;;;;;2.20;2.00;;;4.60;99.90;;;;;;5053150;28;20108;-63
2023/12/14 05:13:46;;;;;;;2.03;1.70;;;4.50;99.90;;;;;;5053110;28;20163;-62
2023/12/14 05:16:16;;;;;;;1.85;1.60;;;4.60;99.90;;;;;;5053071;28;20162;-63
2023/12/14 05:18:41;;;;;;;2.15;1.95;;;4.80;99.90;;;;;;5052974;28;20116;-63
2023/12/14 05:21:07;;;;;;;1.88;1.77;;;4.60;99.90;;;;;;5051722;28;20600;-63
2023/12/14 05:23:33;;;;;;;2.72;2.05;;;4.70;99.90;;;;;;5052656;28;20120;-63
2023/12/14 05:25:59;;;;;;;2.63;1.90;;;4.60;99.90;;;;;;5052580;28;20090;-63
2023/12/14 05:28:24;;;;;;;3.13;1.63;;;4.60;99.90;;;;;;5053087;28;20044;-62
2023/12/14 05:30:50;;;;;;;1.77;1.67;;;4.60;99.90;;;;;;5052786;28;20040;-63
2023/12/14 05:33:16;;;;;;;2.22;2.03;;;4.60;99.90;;;;;;5051250;28;20092;-63
2023/12/14 05:35:41;;;;;;;2.33;1.95;;;4.80;99.90;;;;;;5051151;28;20481;-63
2023/12/14 05:38:07;;;;;;;1.88;1.65;;;4.60;99.90;;;;;;5052704;28;20043;-63
2023/12/14 05:40:33;;;;;;;2.28;2.08;;;4.80;99.90;;;;;;5052574;28;20442;-63
2023/12/14 05:42:58;;;;;;;2.30;2.10;;;4.60;99.90;;;;;;5051105;28;20416;-63
2023/12/14 05:45:24;;;;;;;1.90;1.70;;;4.60;99.90;;;;;;5052558;28;20084;-63
2023/12/14 05:47:51;;;;;;;2.38;1.88;;;4.60;99.90;;;;;;5052503;28;20117;-63
2023/12/14 05:50:16;;;;;;;2.15;1.95;;;4.80;99.90;;;;;;5050885;28;20049;-63
2023/12/14 05:52:42;;;;;;;2.60;2.08;;;4.60;99.90;;;;;;5050919;28;20465;-66
2023/12/14 05:55:12;;;;;;;1.98;1.80;;;4.60;99.90;;;;;;5052411;28;20524;-66
2023/12/14 05:57:38;;;;;;;2.15;1.95;;;4.60;99.90;;;;;;5052318;28;20051;-65
2023/12/14 06:00:08;;;;;;;2.38;1.92;;;4.70;99.90;;;;;;5052328;28;20044;-66
2023/12/14 06:02:33;;;;;;;2.35;1.92;;;4.60;99.90;;;;;;5052352;28;20037;-65
2023/12/14 06:04:59;;;;;;;1.90;1.70;;;4.70;99.90;;;;;;5051885;28;20041;-66
2023/12/14 06:07:25;;;;;;;2.00;1.80;;;4.60;99.90;;;;;;5051261;28;20045;-66
2023/12/14 06:09:51;;;;;;;1.77;1.52;;;4.60;99.90;;;;;;5052090;28;20499;-66
2023/12/14 06:12:16;;;;;;;3.28;2.17;;;4.60;99.90;;;;;;5050767;28;20090;-66
2023/12/14 06:14:42;;;;;;;1.95;1.77;;;4.60;99.90;;;;;;5050629;28;20052;-66
2023/12/14 06:17:08;;;;;;;2.05;1.80;;;4.60;99.90;;;;;;5051861;28;20040;-66
2023/12/14 06:19:33;;;;;;;1.95;1.80;;;4.80;99.90;;;;;;5051736;28;20040;-66
2023/12/14 06:21:59;;;;;;;1.70;1.60;;;4.70;99.90;;;;;;5052359;28;20049;-65
2023/12/14 06:24:24;;;;;;;2.25;1.70;;;4.50;99.90;;;;;;5051722;28;20485;-65
2023/12/14 06:26:50;;;;;;;1.77;1.67;;;4.50;99.90;;;;;;5052015;28;20041;-64
2023/12/14 06:29:16;;;;;;;2.60;2.35;;;4.60;99.90;;;;;;5050455;28;20049;-64
2023/12/14 06:31:41;;;;;;;1.73;1.63;;;4.60;99.90;;;;;;5051943;28;20045;-65
2023/12/14 06:34:07;;;;;;;2.28;2.08;;;4.60;99.90;;;;;;5051947;28;20037;-64
2023/12/14 06:36:34;;;;;;;1.88;1.63;;;4.70;99.90;;;;;;5051950;28;20604;-64
2023/12/14 06:39:00;;;;;;;1.92;1.83;;;4.60;99.90;;;;;;5051642;28;20072;-64
2023/12/14 06:41:27;;;;;;;2.10;1.90;;;4.60;99.90;;;;;;5051936;28;20455;-64
2023/12/14 06:43:53;;;;;;;2.35;2.10;;;4.60;99.90;;;;;;5050325;28;20055;-64
2023/12/14 06:46:19;;;;;;;2.60;2.40;;;4.60;99.90;;;;;;5051793;28;20094;-65
2023/12/14 06:48:45;;;;;;;2.20;2.00;;;4.60;99.90;;;;;;5051793;28;20431;-64
2023/12/14 06:51:11;;;;;;;2.33;1.92;;;4.60;99.90;;;;;;5051637;28;20041;-65
2023/12/14 06:53:40;;;;;;;2.30;2.10;;;4.60;99.90;;;;;;5050216;28;20041;-65
2023/12/14 06:56:10;;;;;;;2.00;1.88;;;4.60;99.90;;;;;;5051729;28;20033;-65
2023/12/14 06:58:39;;;;;;;2.10;1.90;;;4.60;99.90;;;;;;5050321;28;20124;-65
2023/12/14 07:01:05;;;;;;;1.70;1.60;;;4.60;99.90;;;;;;5051751;28;20499;-65
2023/12/14 07:03:31;;;;;;;2.42;2.22;;;4.70;99.90;;;;;;5051828;28;20052;-72
2023/12/14 07:05:57;;;;;;;1.83;1.73;;;4.60;99.90;;;;;;5051647;28;20041;-70
2023/12/14 07:08:24;;;;;;;2.13;1.83;;;4.60;99.90;;;;;;5051171;28;20055;-69
2023/12/14 07:10:49;;;;;;;2.45;2.25;;;5.10;99.90;;;;;;5051600;28;20449;-71
2023/12/14 07:13:15;;;;;;;2.13;1.92;;;4.60;99.90;;;;;;5050274;28;20088;-70
2023/12/14 07:15:41;;;;;;;2.63;2.00;;;4.60;99.90;;;;;;5051548;28;20044;-69
2023/12/14 07:18:06;;;;;;;2.35;2.00;;;4.60;99.90;;;;;;5054028;28;20044;-70
2023/12/14 07:20:32;;;;;;;2.92;2.72;;;5.20;99.90;;;;;;5055275;28;20048;-70
2023/12/14 07:22:57;;;;;;;2.35;2.15;;;4.60;99.90;;;;;;5055431;28;20477;-59
2023/12/14 07:25:23;;;;;;;3.45;2.25;;;4.60;99.90;;;;;;5053648;28;20049;-59
2023/12/14 07:27:49;;;;;;;3.50;2.55;;;4.60;99.90;;;;;;5054994;28;20033;-60
2023/12/14 07:30:14;;;;;;;2.78;2.03;;;4.90;99.90;;;;;;5055009;28;20036;-59
2023/12/14 07:32:40;;;;;;;2.08;1.98;;;4.70;99.90;;;;;;5054753;28;20040;-72
2023/12/14 07:35:06;;;;;;;2.42;2.22;;;4.90;99.90;;;;;;5054776;28;20040;-70
2023/12/14 07:37:32;;;;;;;2.92;2.20;;;4.70;99.90;;;;;;5054937;28;20052;-71
2023/12/14 07:39:58;;;;;;;3.42;2.55;;;4.70;99.90;;;;;;5053394;28;20412;-70
2023/12/14 07:42:24;;;;;;;2.88;2.53;;;5.10;99.90;;;;;;5054935;28;20033;-70
2023/12/14 07:44:49;;;;;;;2.90;2.63;;;4.90;99.90;;;;;;5054556;28;20120;-70
2023/12/14 07:47:15;;;;;;;2.65;2.45;;;4.70;99.90;;;;;;5054655;28;20049;-70
2023/12/14 07:49:41;;;;;;;3.55;2.35;;;5.30;99.90;;;;;;5054795;28;20033;-70
2023/12/14 07:52:07;;;;;;;2.95;2.55;;;4.70;99.90;;;;;;5053246;28;20497;-70
2023/12/14 07:54:33;;;;;;;2.50;2.30;;;5.40;99.90;;;;;;5036474;28;20060;-70
2023/12/14 07:56:58;;;;;;;2.72;2.17;;;4.70;99.90;;;;;;5054292;28;20033;-70
2023/12/14 07:59:24;;;;;;;2.33;2.13;;;4.70;99.90;;;;;;5052998;28;20044;-70
2023/12/14 08:01:49;;;;;;;2.40;2.20;;;5.20;99.90;;;;;;5054558;28;20037;-71
2023/12/14 08:04:15;;;;;;;3.15;2.78;;;4.70;99.90;;;;;;5054467;28;20045;-71
2023/12/14 08:06:41;;;;;;;3.00;2.70;;;4.70;99.90;;;;;;5054363;28;20037;-69
2023/12/14 08:09:07;;;;;;;3.75;2.50;;;4.70;99.90;;;;;;5053960;28;20060;-69
2023/12/14 08:11:33;;;;;;;3.28;2.97;;;4.70;99.90;;;;;;5054562;28;20049;-59
2023/12/14 08:13:59;;;;;;;2.95;2.72;;;4.70;99.90;;;;;;5054329;28;20037;-58
2023/12/14 08:16:25;;;;;;;4.32;2.80;;;4.70;99.90;;;;;;5054060;28;20037;-59
2023/12/14 08:18:50;;;;;;;3.45;2.90;;;4.70;99.90;;;;;;5054186;28;20087;-59
2023/12/14 08:21:17;;;;;;;3.38;2.63;;;4.70;99.90;;;;;;5054205;28;20037;-59
2023/12/14 08:23:43;;;;;;;3.40;3.10;;;4.70;99.90;;;;;;5052651;28;20076;-58
2023/12/14 08:26:11;;;;;;;3.58;2.80;;;4.70;99.90;;;;;;5054056;28;20444;-59
2023/12/14 08:28:37;;;;;;;2.88;2.58;;;4.70;99.90;;;;;;5051610;28;20091;-59
2023/12/14 08:31:04;;;;;;;2.90;2.70;;;4.70;99.90;;;;;;5053924;28;20045;-59
2023/12/14 08:33:30;;;;;;;4.20;2.65;;;4.70;99.90;;;;;;5054000;28;20041;-59
2023/12/14 08:35:56;;;;;;;3.78;2.97;;;4.70;99.90;;;;;;5054025;28;20047;-59
2023/12/14 08:38:22;;;;;;;4.28;3.10;;;4.70;99.90;;;;;;5053989;28;20039;-59
2023/12/14 08:40:47;;;;;;;3.67;2.88;;;4.70;99.90;;;;;;5054030;28;20426;-59
2023/12/14 08:43:13;;;;;;;4.10;2.80;;;4.70;99.90;;;;;;5053916;28;20118;-61
2023/12/14 08:45:39;;;;;;;3.35;3.05;;;4.70;99.90;;;;;;5053749;28;20045;-62
2023/12/14 08:48:05;;;;;;;3.05;2.67;;;4.70;99.90;;;;;;5053554;28;20049;-61
2023/12/14 08:50:31;;;;;;;2.40;2.20;;;4.70;99.90;;;;;;5053610;28;20036;-62
2023/12/14 08:52:58;;;;;;;3.03;2.75;;;4.70;99.90;;;;;;5053359;28;20374;-61
2023/12/14 08:55:24;;;;;;;3.40;3.10;;;5.10;99.90;;;;;;5053274;28;20086;-62
2023/12/14 08:57:50;;;;;;;4.22;3.17;;;4.70;99.90;;;;;;5053394;28;20044;-61
2023/12/14 09:00:18;;;;;;;3.08;2.70;;;5.00;99.90;;;;;;5053128;28;20037;-61
2023/12/14 09:02:45;;;;;;;3.75;3.35;;;4.80;99.90;;;;;;5051750;28;20048;-62
2023/12/14 09:05:12;;;;;;;3.30;2.55;;;4.80;99.90;;;;;;5052908;28;20041;-61
2023/12/14 09:07:38;;;;;;;2.80;2.50;;;4.90;99.90;;;;;;5052820;28;20061;-62
2023/12/14 09:10:04;;;;;;;4.22;3.10;;;4.90;99.90;;;;;;5053177;28;20318;-62
2023/12/14 09:12:30;;;;;;;3.17;2.88;;;4.90;99.90;;;;;;5051532;28;20073;-62
2023/12/14 09:14:55;;;;;;;3.20;2.90;;;4.90;99.90;;;;;;5053079;28;20448;-62
2023/12/14 09:17:21;;;;;;;3.08;2.78;;;5.10;99.90;;;;;;5053114;28;20045;-62
2023/12/14 09:19:47;;;;;;;3.33;3.00;;;5.00;99.90;;;;;;5052973;28;20040;-61
2023/12/14 09:22:13;;;;;;;3.60;3.25;;;5.00;99.90;;;;;;5052853;28;20079;-64
2023/12/14 09:24:38;;;;;;;3.67;2.97;;;5.00;99.90;;;;;;5051542;28;20040;-64
2023/12/14 09:27:04;;;;;;;3.70;3.08;;;5.00;99.90;;;;;;5052849;28;20119;-64
2023/12/14 09:29:30;;;;;;;2.58;2.38;;;5.00;99.90;;;;;;5052607;28;20033;-64
2023/12/14 09:31:55;;;;;;;2.83;2.60;;;5.00;99.90;;;;;;5053145;28;20029;-64
2023/12/14 09:34:21;;;;;;;3.47;2.95;;;5.10;99.90;;;;;;5052887;28;20078;-64
2023/12/14 09:36:46;;;;;;;2.95;2.70;;;5.20;99.90;;;;;;5052428;28;20040;-65
2023/12/14 09:39:12;;;;;;;2.83;2.63;;;5.30;99.90;;;;;;5052709;28;20043;-64
2023/12/14 09:41:39;;;;;;;4.93;3.15;;;5.10;99.90;;;;;;5052487;28;20396;-64
2023/12/14 09:44:06;;;;;;;3.17;2.45;;;5.10;99.90;;;;;;5052589;28;20090;-65
2023/12/14 09:46:36;;;;;;;3.85;3.28;;;5.40;99.90;;;;;;5052465;28;20041;-64
2023/12/14 09:49:02;;;;;;;4.30;3.15;;;5.20;99.90;;;;;;5052443;28;20108;-65
2023/12/14 09:51:28;;;;;;;3.55;2.92;;;5.10;99.90;;;;;;5051230;28;20044;-62
2023/12/14 09:53:57;;;;;;;3.60;2.95;;;5.20;99.90;;;;;;5052265;28;20045;-62
2023/12/14 09:56:27;;;;;;;3.00;2.80;;;5.20;99.90;;;;;;5052338;28;20082;-62
2023/12/14 09:58:53;;;;;;;2.60;2.40;;;5.10;99.90;;;;;;5052291;28;20163;-62
2023/12/14 10:01:24;;;;;;;3.15;2.85;;;5.10;99.90;;;;;;5052032;28;20033;-62
2023/12/14 10:03:51;;;;;;;3.40;3.10;;;5.80;99.90;;;;;;5052316;28;20392;-62
2023/12/14 10:06:18;;;;;;;3.25;2.95;;;5.10;99.90;;;;;;5050722;28;20116;-62
2023/12/14 10:08:56;;;;;;;3.15;2.80;;;5.20;99.90;;;;;;5051883;28;20428;-61
2023/12/14 10:11:22;;;;;;;3.25;2.60;;;5.20;99.90;;;;;;5052145;28;20049;-62
2023/12/14 10:13:47;;;;;;;3.75;3.45;;;5.20;99.90;;;;;;5052192;28;20500;-62
2023/12/14 10:16:30;;;;;;;3.33;3.03;;;5.20;99.90;;;;;;5052202;28;20041;-62
2023/12/14 10:18:57;;;;;;;3.53;2.90;;;5.20;99.90;;;;;;5051871;28;20087;-62
2023/12/14 10:21:24;;;;;;;3.30;3.00;;;5.20;99.90;;;;;;5052150;28;20040;-62
2023/12/14 10:23:50;;;;;;;3.28;2.97;;;5.20;99.90;;;;;;5052107;28;20087;-62
2023/12/14 10:26:15;;;;;;;3.83;3.10;;;5.20;99.90;;;;;;5051707;28;20029;-62
2023/12/14 10:28:41;;;;;;;3.20;2.90;;;5.30;99.90;;;;;;5052022;28;20087;-62
2023/12/14 10:31:07;;;;;;;3.83;3.22;;;5.40;99.90;;;;;;5051796;28;20443;-62
2023/12/14 10:33:33;;;;;;;4.03;3.45;;;5.30;99.90;;;;;;5052129;28;20041;-65
2023/12/14 10:36:00;;;;;;;3.17;2.88;;;5.40;99.90;;;;;;5051701;28;20499;-65
2023/12/14 10:38:27;;;;;;;3.05;2.67;;;5.70;99.90;;;;;;5051892;28;20045;-64
2023/12/14 10:40:54;;;;;;;3.78;3.30;;;5.40;99.90;;;;;;5050396;28;20045;-64
2023/12/14 10:43:20;;;;;;;2.70;2.50;;;5.90;99.90;;;;;;5051975;28;20048;-64
2023/12/14 10:45:51;;;;;;;3.30;3.00;;;5.40;99.90;;;;;;5033938;28;20041;-64
2023/12/14 10:48:20;;;;;;;3.27;3.07;;;5.40;99.90;;;;;;5033768;28;20103;-64
2023/12/14 10:50:48;;;;;;;3.78;2.58;;;5.40;99.90;;;;;;5051566;28;20264;-64
2023/12/14 10:53:14;;;;;;;3.00;2.70;;;5.40;99.90;;;;;;5053382;28;20099;-64
2023/12/14 10:55:44;;;;;;;2.80;2.58;;;5.40;99.90;;;;;;5055408;28;20119;-64
2023/12/14 10:58:11;;;;;;;3.63;3.28;;;5.40;99.90;;;;;;5054189;28;20439;-65
2023/12/14 11:00:38;;;;;;;3.38;3.08;;;5.40;99.90;;;;;;5055751;28;20094;-64
2023/12/14 11:03:06;;;;;;;2.80;2.47;;;5.50;99.90;;;;;;5055817;28;20047;-64
2023/12/14 11:05:36;;;;;;;3.55;2.67;;;5.70;99.90;;;;;;5055283;28;20048;-64
2023/12/14 11:08:09;;;;;;;2.70;2.50;;;5.50;99.90;;;;;;5055090;28;20092;-64
2023/12/14 11:10:55;;;;;;;3.38;3.08;;;5.50;99.90;;;;;;5055544;28;20084;-66
2023/12/14 11:13:21;;;;;;;3.20;2.75;;;5.60;99.90;;;;;;5055138;28;20052;-64
2023/12/14 11:15:52;;;;;;;4.95;3.00;;;5.60;99.90;;;;;;5055397;28;20033;-64
2023/12/14 11:18:17;;;;;;;3.38;3.00;;;5.60;99.90;;;;;;5055445;28;20098;-64
2023/12/14 11:20:46;;;;;;;2.92;2.53;;;5.70;99.90;;;;;;5053650;28;20488;-65
2023/12/14 11:23:19;;;;;;;3.05;2.75;;;5.70;99.90;;;;;;5054953;28;20124;-64
2023/12/14 11:25:49;;;;;;;3.20;2.85;;;5.70;99.90;;;;;;5055199;28;20106;-64
2023/12/14 11:28:15;;;;;;;2.60;2.40;;;5.70;99.90;;;;;;5054979;28;20045;-65
2023/12/14 11:30:43;;;;;;;3.10;2.80;;;5.70;99.90;;;;;;5055149;28;20079;-64
2023/12/14 11:33:11;;;;;;;3.00;2.70;;;5.70;99.90;;;;;;5055171;28;20029;-64
2023/12/14 11:35:37;;;;;;;2.97;2.50;;;5.70;99.90;;;;;;5054768;28;20075;-65
2023/12/14 11:38:10;;;;;;;2.97;2.53;;;5.70;99.90;;;;;;5054694;28;20084;-64
2023/12/14 11:40:36;;;;;;;3.33;2.65;;;5.70;99.90;;;;;;5054611;28;20044;-65
2023/12/14 11:43:09;;;;;;;3.00;2.67;;;5.70;99.90;;;;;;5054979;28;20056;-64
2023/12/14 11:45:39;;;;;;;3.35;2.92;;;5.70;99.90;;;;;;5055139;28;20421;-65
2023/12/14 11:48:06;;;;;;;3.25;2.95;;;6.10;99.90;;;;;;5054747;28;20044;-64
2023/12/14 11:50:33;;;;;;;3.25;2.78;;;5.80;99.90;;;;;;5053206;28;20048;-65
2023/12/14 11:53:03;;;;;;;3.33;2.40;;;5.80;99.90;;;;;;5054413;28;20072;-65
2023/12/14 11:55:30;;;;;;;2.92;2.67;;;5.90;99.90;;;;;;5054671;28;20032;-65
2023/12/14 11:57:56;;;;;;;2.65;2.45;;;5.90;99.90;;;;;;5054576;28;20075;-65
2023/12/14 12:00:26;;;;;;;3.22;2.92;;;5.90;99.90;;;;;;5052884;28;20073;-66
2023/12/14 12:02:52;;;;;;;3.55;2.92;;;5.90;99.90;;;;;;5052858;28;20083;-65
2023/12/14 12:05:19;;;;;;;2.95;2.58;;;6.10;99.90;;;;;;5053102;28;20076;-65
2023/12/14 12:07:47;;;;;;;3.03;2.75;;;5.90;99.90;;;;;;5054015;28;20064;-65
2023/12/14 12:10:14;;;;;;;2.78;2.58;;;5.90;99.90;;;;;;5052749;28;20424;-64
2023/12/14 12:12:39;;;;;;;3.03;2.72;;;5.90;99.90;;;;;;5054448;28;20442;-61
2023/12/14 12:15:05;;;;;;;3.03;2.72;;;5.90;99.90;;;;;;5052765;28;20120;-60
2023/12/14 12:17:37;;;;;;;2.70;2.50;;;5.80;99.90;;;;;;5054451;28;20033;-60
2023/12/14 12:20:06;;;;;;;2.90;2.60;;;5.80;99.90;;;;;;5052924;28;20053;-60
2023/12/14 12:22:32;;;;;;;3.03;2.70;;;5.80;99.90;;;;;;5054214;28;20049;-60
2023/12/14 12:24:58;;;;;;;2.95;2.35;;;5.80;99.90;;;;;;5052895;28;20477;-60
2023/12/14 12:27:24;;;;;;;2.60;2.25;;;6.10;99.90;;;;;;5054042;28;20446;-60
2023/12/14 12:29:53;;;;;;;2.72;2.40;;;5.80;99.90;;;;;;5054267;28;20171;-60
2023/12/14 12:32:19;;;;;;;2.53;2.33;;;5.90;99.90;;;;;;5052443;28;20053;-59
2023/12/14 12:34:44;;;;;;;3.05;2.70;;;5.80;99.90;;;;;;5053854;28;20499;-60
2023/12/14 12:37:10;;;;;;;3.10;2.80;;;6.00;99.90;;;;;;5053774;28;20071;-60
2023/12/14 12:39:35;;;;;;;3.05;2.75;;;5.80;99.90;;;;;;5052674;28;20055;-59
2023/12/14 12:42:02;;;;;;;3.00;2.30;;;5.80;99.90;;;;;;5052468;28;20045;-59
2023/12/14 12:44:28;;;;;;;3.05;2.78;;;5.90;99.90;;;;;;5053523;28;20045;-59
2023/12/14 12:46:57;;;;;;;3.20;2.90;;;5.90;99.90;;;;;;5052452;28;20049;-60
2023/12/14 12:49:22;;;;;;;3.63;2.60;;;6.00;99.90;;;;;;5052533;28;20116;-60
2023/12/14 12:51:48;;;;;;;4.53;3.45;;;5.90;99.90;;;;;;5053382;28;20124;-60
2023/12/14 12:54:14;;;;;;;3.58;2.65;;;5.90;99.90;;;;;;5052066;28;20099;-59